Popsquash, Vermont
Current Conditions -  °F | °C
As of 12:15 AM on Tuesday 23 Dec 2014 (Local Time) from KFSO Reporting Station
Overcast Overcast  
Wind Chill: 22°   Ceiling: 4900
Heat Index: 22°   Visibility: 7mi
Dew Point: 19°   Wind: 0mph
Humidity: 89%   Direction: NA
Pressure: 30.25"   Gusts: NA
Location:  44.9002°N, 73.1493°W
Report Text: KFSO 230515Z AUTO 00000KT 7SM OVC049 M06/M07 A3025 RMK AO2 T10581073
Loading
Personal Weather Stations






























Interactive Weather Map New forecast layout! Learn more

10-Day Weather Forecast

Advertisements
Track Severe Weather on mobile